Time;durP1;ratioP1;P1;durP2;ratioP2;P2;SDS_P1;SDS_P2;PMS_P1;PMS_P2;Temp;Humidity;BMP_temperature;BMP_pressure;BME280_temperature;BME280_humidity;BME280_pressure;Samples;Min_cycle;Max_cycle;Signal;HPM_P1;HPM_P2
2022/08/07 00:01:06;;;;;;;1.40;0.38;;;;;;;;;;4841260;29;20104;-45
2022/08/07 00:03:53;;;;;;;2.50;0.22;;;;;;;;;;4840868;29;20094;-49
2022/08/07 00:06:21;;;;;;;1.17;0.30;;;;;;;;;;4841121;29;20179;-48
2022/08/07 00:08:59;;;;;;;1.10;0.30;;;;;;;;;;4840264;29;20394;-49
2022/08/07 00:11:49;;;;;;;0.38;0.20;;;;;;;;;;4841207;29;20387;-52
2022/08/07 00:14:23;;;;;;;2.17;0.30;;;;;;;;;;4840703;29;20049;-49
2022/08/07 00:16:51;;;;;;;2.22;0.20;;;;;;;;;;4840988;29;20053;-45
2022/08/07 00:19:19;;;;;;;2.20;0.30;;;;;;;;;;4824658;29;20053;-43
2022/08/07 00:21:51;;;;;;;0.55;0.30;;;;;;;;;;4840960;29;20046;-42
2022/08/07 00:24:23;;;;;;;0.98;0.28;;;;;;;;;;4840687;29;20458;-42
2022/08/07 00:26:51;;;;;;;1.13;0.45;;;;;;;;;;4840658;29;20056;-43
2022/08/07 00:29:33;;;;;;;0.65;0.25;;;;;;;;;;4840751;29;20526;-48
2022/08/07 00:32:04;;;;;;;0.65;0.25;;;;;;;;;;4839589;29;20042;-42
2022/08/07 00:34:33;;;;;;;2.92;0.65;;;;;;;;;;4841659;29;20053;-43
2022/08/07 00:37:02;;;;;;;0.57;0.20;;;;;;;;;;4844282;29;20042;-42
2022/08/07 00:39:33;;;;;;;1.00;0.25;;;;;;;;;;4843295;29;20169;-42
2022/08/07 00:42:02;;;;;;;0.13;0.13;;;;;;;;;;4844287;29;20079;-43
2022/08/07 00:44:33;;;;;;;2.00;0.22;;;;;;;;;;4843178;29;20050;-43
2022/08/07 00:47:05;;;;;;;25.92;11.00;;;;;;;;;;4843798;29;20077;-44
2022/08/07 00:49:52;;;;;;;4.43;1.15;;;;;;;;;;4828197;29;20152;-44
2022/08/07 00:52:40;;;;;;;0.35;0.28;;;;;;;;;;4825557;29;20121;-44
2022/08/07 00:55:13;;;;;;;0.20;0.20;;;;;;;;;;4825610;29;20051;-45
2022/08/07 00:58:01;;;;;;;0.98;0.30;;;;;;;;;;4824186;29;20053;-44
2022/08/07 01:00:30;;;;;;;4.03;0.52;;;;;;;;;;4824513;29;20042;-44
2022/08/07 01:02:58;;;;;;;1.42;0.38;;;;;;;;;;4825562;29;20545;-46
2022/08/07 01:05:28;;;;;;;0.93;0.30;;;;;;;;;;4824270;29;20057;-47
2022/08/07 01:08:02;;;;;;;0.30;0.20;;;;;;;;;;4825280;29;20079;-48
2022/08/07 01:10:29;;;;;;;0.30;0.20;;;;;;;;;;4824377;29;20051;-49
2022/08/07 01:12:57;;;;;;;1.73;0.43;;;;;;;;;;4823995;29;20086;-45
2022/08/07 01:15:27;;;;;;;1.45;0.35;;;;;;;;;;4824091;29;20047;-44
2022/08/07 01:18:14;;;;;;;2.00;0.28;;;;;;;;;;4824985;29;20054;-46
2022/08/07 01:21:11;;;;;;;1.23;0.38;;;;;;;;;;4823979;29;20050;-45
2022/08/07 01:23:56;;;;;;;1.77;0.30;;;;;;;;;;4823605;29;20070;-46
2022/08/07 01:26:24;;;;;;;1.88;0.40;;;;;;;;;;4825228;29;20046;-45
2022/08/07 01:28:54;;;;;;;0.47;0.30;;;;;;;;;;4825057;29;20086;-45
2022/08/07 01:31:30;;;;;;;1.40;0.43;;;;;;;;;;4823508;29;20503;-49
2022/08/07 01:34:16;;;;;;;0.30;0.20;;;;;;;;;;4823570;29;20051;-44
2022/08/07 01:36:47;;;;;;;0.28;0.20;;;;;;;;;;4823831;29;20050;-45
2022/08/07 01:39:28;;;;;;;1.27;0.30;;;;;;;;;;4823593;29;20050;-44
2022/08/07 01:42:33;;;;;;;2.92;0.30;;;;;;;;;;4823854;29;20046;-44
2022/08/07 01:45:21;;;;;;;3.08;0.32;;;;;;;;;;4823187;29;20526;-45
2022/08/07 01:48:03;;;;;;;3.20;0.20;;;;;;;;;;4825030;29;20137;-45
2022/08/07 01:51:04;;;;;;;0.57;0.30;;;;;;;;;;4843037;29;20048;-45
2022/08/07 01:54:03;;;;;;;2.45;0.20;;;;;;;;;;4835501;29;20831;-47
2022/08/07 01:56:53;;;;;;;0.85;0.20;;;;;;;;;;4824535;29;20106;-46
2022/08/07 01:59:28;;;;;;;0.47;0.35;;;;;;;;;;4823394;29;20051;-47
2022/08/07 02:02:04;;;;;;;2.13;0.30;;;;;;;;;;4823226;29;20058;-48
2022/08/07 02:04:41;;;;;;;4.40;0.47;;;;;;;;;;4823712;29;20073;-43
2022/08/07 02:07:32;;;;;;;0.60;0.20;;;;;;;;;;4808330;29;20050;-42
2022/08/07 02:10:25;;;;;;;2.00;0.30;;;;;;;;;;4823256;29;20047;-43
2022/08/07 02:12:55;;;;;;;;;;;;;;;;;;4823442;29;20054;-42
2022/08/07 02:15:29;;;;;;;1.30;0.47;;;;;;;;;;4824394;29;19999;-42
2022/08/07 02:18:02;;;;;;;0.20;0.20;;;;;;;;;;4823020;29;20062;-43
2022/08/07 02:20:32;;;;;;;3.47;0.60;;;;;;;;;;4823405;29;20046;-42
2022/08/07 02:23:03;;;;;;;0.52;0.30;;;;;;;;;;4823821;29;20418;-43
2022/08/07 02:25:34;;;;;;;1.83;0.68;;;;;;;;;;4822695;29;20062;-43
2022/08/07 02:28:24;;;;;;;0.30;0.30;;;;;;;;;;4822789;29;20480;-43
2022/08/07 02:31:00;;;;;;;0.73;0.50;;;;;;;;;;4807872;29;20069;-42
2022/08/07 02:33:48;;;;;;;0.38;0.20;;;;;;;;;;4823603;29;20189;-43
2022/08/07 02:36:41;;;;;;;0.30;0.30;;;;;;;;;;4807666;29;20129;-42
2022/08/07 02:39:15;;;;;;;0.20;0.20;;;;;;;;;;4822734;29;20046;-42
2022/08/07 02:42:06;;;;;;;4.50;0.30;;;;;;;;;;4822722;29;20059;-43
2022/08/07 02:44:40;;;;;;;1.45;0.30;;;;;;;;;;4824038;29;20137;-42
2022/08/07 02:47:17;;;;;;;0.30;0.30;;;;;;;;;;4822720;29;20095;-45
2022/08/07 02:50:11;;;;;;;2.50;0.30;;;;;;;;;;4840036;29;20042;-44
2022/08/07 02:53:00;;;;;;;1.20;0.35;;;;;;;;;;4840712;29;20128;-43
2022/08/07 02:55:36;;;;;;;0.43;0.20;;;;;;;;;;4840833;29;20133;-43
2022/08/07 02:58:30;;;;;;;3.33;0.30;;;;;;;;;;4840436;29;20498;-47
2022/08/07 03:01:02;;;;;;;2.63;0.30;;;;;;;;;;4840544;29;20057;-43
2022/08/07 03:03:34;;;;;;;1.25;0.20;;;;;;;;;;4840627;29;20045;-43
2022/08/07 03:06:24;;;;;;;0.85;0.30;;;;;;;;;;4825300;29;20050;-43
2022/08/07 03:09:04;;;;;;;1.92;0.50;;;;;;;;;;4840467;29;20541;-47
2022/08/07 03:11:34;;;;;;;1.90;0.40;;;;;;;;;;4840489;29;20053;-43
2022/08/07 03:14:18;;;;;;;0.93;0.20;;;;;;;;;;4840424;29;20284;-41
2022/08/07 03:16:49;;;;;;;0.88;0.30;;;;;;;;;;4822353;29;20537;-43
2022/08/07 03:19:19;;;;;;;0.50;0.30;;;;;;;;;;4806800;29;20115;-43
2022/08/07 03:21:50;;;;;;;1.95;0.30;;;;;;;;;;4823213;29;20422;-43
2022/08/07 03:24:19;;;;;;;1.52;0.20;;;;;;;;;;4806644;29;20129;-43
2022/08/07 03:27:01;;;;;;;1.13;0.20;;;;;;;;;;4792702;29;20129;-44
2022/08/07 03:29:45;;;;;;;0.52;0.40;;;;;;;;;;4822330;29;20065;-49
2022/08/07 03:32:32;;;;;;;1.38;0.20;;;;;;;;;;4821827;29;20050;-44
2022/08/07 03:35:02;;;;;;;0.60;0.30;;;;;;;;;;4823310;29;20114;-43
2022/08/07 03:37:51;;;;;;;0.57;0.20;;;;;;;;;;4821839;29;20042;-42
2022/08/07 03:40:26;;;;;;;1.05;0.30;;;;;;;;;;4821758;29;20050;-46
2022/08/07 03:43:10;;;;;;;0.88;0.30;;;;;;;;;;4822128;29;20088;-46
2022/08/07 03:45:47;;;;;;;1.48;0.30;;;;;;;;;;4822099;29;20107;-49
2022/08/07 03:48:20;;;;;;;1.08;0.20;;;;;;;;;;4826752;29;20081;-51
2022/08/07 03:50:48;;;;;;;0.30;0.22;;;;;;;;;;4840180;29;20057;-51
2022/08/07 03:53:29;;;;;;;0.50;0.30;;;;;;;;;;4841288;29;20061;-47
2022/08/07 03:56:20;;;;;;;0.80;0.20;;;;;;;;;;4839949;29;20042;-45
2022/08/07 03:59:02;;;;;;;;;;;;;;;;;;4840306;29;20053;-46
2022/08/07 04:01:39;;;;;;;0.68;0.30;;;;;;;;;;4841134;29;20411;-50
2022/08/07 04:04:14;;;;;;;3.33;0.35;;;;;;;;;;4840286;29;20076;-52
2022/08/07 04:06:45;;;;;;;0.88;0.30;;;;;;;;;;4840143;29;20057;-52
2022/08/07 04:09:20;;;;;;;0.32;0.20;;;;;;;;;;4840603;29;20052;-51
2022/08/07 04:11:54;;;;;;;0.70;0.30;;;;;;;;;;4843310;29;20050;-49
2022/08/07 04:14:44;;;;;;;0.75;0.40;;;;;;;;;;4843370;29;20049;-47
2022/08/07 04:17:15;;;;;;;0.63;0.30;;;;;;;;;;4844831;29;20406;-48
2022/08/07 04:20:04;;;;;;;0.43;0.20;;;;;;;;;;4844538;29;20073;-49
2022/08/07 04:22:36;;;;;;;2.67;0.40;;;;;;;;;;4840157;29;20129;-45
2022/08/07 04:25:05;;;;;;;3.00;0.30;;;;;;;;;;4826096;29;20580;-50
2022/08/07 04:27:41;;;;;;;1.00;0.20;;;;;;;;;;4840490;29;20046;-51
2022/08/07 04:30:27;;;;;;;1.73;0.40;;;;;;;;;;4840130;29;20538;-47
2022/08/07 04:33:22;;;;;;;1.65;0.30;;;;;;;;;;4824680;29;20080;-52
2022/08/07 04:35:52;;;;;;;0.70;0.32;;;;;;;;;;4824776;29;20529;-46
2022/08/07 04:38:25;;;;;;;1.60;0.30;;;;;;;;;;4825778;29;20054;-51
2022/08/07 04:40:52;;;;;;;2.10;0.43;;;;;;;;;;4839862;29;20099;-51
2022/08/07 04:43:42;;;;;;;0.50;0.30;;;;;;;;;;4840340;29;20058;-51
2022/08/07 04:46:45;;;;;;;0.70;0.40;;;;;;;;;;4823017;29;20046;-46
2022/08/07 04:50:17;;;;;;;1.33;0.40;;;;;;;;;;4820656;29;20062;-47
2022/08/07 04:53:16;;;;;;;0.30;0.30;;;;;;;;;;4825514;29;20575;-51
2022/08/07 04:56:29;;;;;;;0.32;0.30;;;;;;;;;;4825385;29;20106;-51
2022/08/07 04:59:26;;;;;;;1.80;0.40;;;;;;;;;;4820273;29;20058;-47
2022/08/07 05:02:25;;;;;;;0.43;0.40;;;;;;;;;;4825648;29;20125;-50
2022/08/07 05:05:07;;;;;;;0.93;0.28;;;;;;;;;;4839628;29;20054;-49
2022/08/07 05:07:57;;;;;;;0.55;0.28;;;;;;;;;;4839452;29;20567;-50
2022/08/07 05:10:41;;;;;;;1.55;0.40;;;;;;;;;;4825629;29;20189;-48
2022/08/07 05:13:15;;;;;;;3.58;1.15;;;;;;;;;;4839314;29;20530;-48
2022/08/07 05:16:09;;;;;;;1.00;0.50;;;;;;;;;;4839102;29;20412;-50
2022/08/07 05:18:47;;;;;;;0.30;0.30;;;;;;;;;;4825255;29;20099;-48
2022/08/07 05:21:17;;;;;;;1.85;0.35;;;;;;;;;;4838184;29;20054;-45
2022/08/07 05:24:16;;;;;;;0.55;0.30;;;;;;;;;;4838940;29;20062;-47
2022/08/07 05:26:47;;;;;;;2.95;0.30;;;;;;;;;;4839481;29;20051;-47
2022/08/07 05:29:16;;;;;;;0.95;0.30;;;;;;;;;;4825221;29;20054;-46
2022/08/07 05:31:47;;;;;;;0.55;0.35;;;;;;;;;;4823922;29;20062;-47
2022/08/07 05:34:25;;;;;;;3.50;0.30;;;;;;;;;;4839060;29;20058;-46
2022/08/07 05:36:54;;;;;;;1.58;0.35;;;;;;;;;;4839138;29;20089;-46
2022/08/07 05:39:34;;;;;;;0.30;0.30;;;;;;;;;;4823579;29;20503;-48
2022/08/07 05:42:22;;;;;;;17.98;8.55;;;;;;;;;;4824970;29;20042;-47
2022/08/07 05:45:06;;;;;;;2.20;0.90;;;;;;;;;;4823621;29;20046;-46
2022/08/07 05:48:01;;;;;;;1.15;0.40;;;;;;;;;;4822522;29;20434;-46
2022/08/07 05:50:43;;;;;;;1.00;0.30;;;;;;;;;;4820479;29;20046;-47
2022/08/07 05:53:13;;;;;;;1.90;0.50;;;;;;;;;;4820215;29;20550;-47
2022/08/07 05:56:03;;;;;;;3.22;0.30;;;;;;;;;;4820370;29;20050;-45
2022/08/07 05:58:39;;;;;;;0.63;0.30;;;;;;;;;;4806519;29;20168;-45
2022/08/07 06:01:18;;;;;;;0.80;0.40;;;;;;;;;;4820484;29;20047;-46
2022/08/07 06:03:53;;;;;;;3.58;0.30;;;;;;;;;;4820532;29;20581;-46
2022/08/07 06:06:28;;;;;;;0.43;0.40;;;;;;;;;;4806218;29;20039;-47
2022/08/07 06:09:03;;;;;;;1.75;0.40;;;;;;;;;;4805727;29;20047;-47
2022/08/07 06:11:36;;;;;;;1.55;0.68;;;;;;;;;;4820275;29;20080;-45
2022/08/07 06:14:04;;;;;;;2.05;0.40;;;;;;;;;;4820007;29;20047;-47
2022/08/07 06:16:48;;;;;;;11.57;8.02;;;;;;;;;;4805055;29;20043;-47
2022/08/07 06:19:28;;;;;;;12.60;7.55;;;;;;;;;;4820120;29;20055;-47
2022/08/07 06:22:18;;;;;;;2.80;0.70;;;;;;;;;;4806730;29;20051;-50
2022/08/07 06:24:57;;;;;;;1.80;0.40;;;;;;;;;;4807893;29;20055;-47
2022/08/07 06:27:28;;;;;;;3.13;0.50;;;;;;;;;;4822705;29;20050;-46
2022/08/07 06:30:16;;;;;;;8.90;4.60;;;;;;;;;;4824345;29;20168;-44
2022/08/07 06:33:08;;;;;;;5.68;0.82;;;;;;;;;;4822757;29;20141;-44
2022/08/07 06:35:46;;;;;;;4.63;0.60;;;;;;;;;;4823009;29;20567;-47
2022/08/07 06:38:38;;;;;;;1.05;0.30;;;;;;;;;;4824021;29;20125;-44
2022/08/07 06:41:42;;;;;;;1.52;0.40;;;;;;;;;;4824072;29;20559;-48
2022/08/07 06:44:46;;;;;;;4.65;0.50;;;;;;;;;;4807573;29;20050;-43
2022/08/07 06:47:19;;;;;;;0.85;0.40;;;;;;;;;;4824013;29;20082;-46
2022/08/07 06:49:55;;;;;;;1.48;0.45;;;;;;;;;;4838440;29;20053;-46
2022/08/07 06:52:35;;;;;;;1.35;0.32;;;;;;;;;;4825733;29;20049;-46
2022/08/07 06:55:16;;;;;;;1.42;0.47;;;;;;;;;;4814522;29;20046;-46
2022/08/07 06:58:08;;;;;;;1.35;0.50;;;;;;;;;;4823664;29;20414;-44
2022/08/07 07:00:51;;;;;;;2.70;0.38;;;;;;;;;;4822410;29;20074;-46
2022/08/07 07:03:22;;;;;;;0.90;0.50;;;;;;;;;;4822816;29;20411;-44
2022/08/07 07:06:10;;;;;;;2.22;0.40;;;;;;;;;;4823556;29;20074;-42
2022/08/07 07:08:37;;;;;;;1.65;0.28;;;;;;;;;;4823922;29;20053;-43
2022/08/07 07:11:12;;;;;;;1.08;0.40;;;;;;;;;;4823554;29;20049;-47
2022/08/07 07:14:02;;;;;;;1.77;0.40;;;;;;;;;;4823490;29;20050;-45
2022/08/07 07:16:38;;;;;;;2.58;0.50;;;;;;;;;;4823606;29;20038;-46
2022/08/07 07:19:20;;;;;;;1.03;0.93;;;;;;;;;;4823268;29;20070;-44
2022/08/07 07:22:09;;;;;;;2.42;0.40;;;;;;;;;;4823192;29;20098;-45
2022/08/07 07:24:57;;;;;;;5.43;0.50;;;;;;;;;;4823564;29;20039;-45
2022/08/07 07:27:51;;;;;;;14.55;9.98;;;;;;;;;;4823414;29;20083;-47
2022/08/07 07:30:34;;;;;;;1.40;0.50;;;;;;;;;;4823374;29;20086;-48
2022/08/07 07:33:10;;;;;;;1.48;0.50;;;;;;;;;;4823164;29;20515;-44
2022/08/07 07:35:43;;;;;;;;;;;;;;;;;;4823660;29;20407;-44
2022/08/07 07:38:31;;;;;;;0.32;0.32;;;;;;;;;;4823150;29;20290;-44
2022/08/07 07:41:03;;;;;;;5.60;0.40;;;;;;;;;;4823078;29;20098;-44
2022/08/07 07:43:38;;;;;;;1.10;0.57;;;;;;;;;;4822699;29;20057;-44
2022/08/07 07:46:29;;;;;;;3.67;0.43;;;;;;;;;;4823064;29;20074;-43
2022/08/07 07:49:19;;;;;;;1.25;0.50;;;;;;;;;;4823258;29;20560;-44
2022/08/07 07:52:08;;;;;;;2.47;1.10;;;;;;;;;;4823008;29;20038;-46
2022/08/07 07:54:36;;;;;;;24.73;11.35;;;;;;;;;;4823085;29;20050;-47
2022/08/07 07:57:07;;;;;;;1.88;0.80;;;;;;;;;;4822899;29;20058;-47
2022/08/07 07:59:38;;;;;;;4.32;0.40;;;;;;;;;;4823015;29;20072;-45
2022/08/07 08:02:20;;;;;;;0.40;0.30;;;;;;;;;;4822938;29;20061;-41
2022/08/07 08:05:05;;;;;;;1.05;0.40;;;;;;;;;;4823009;29;20051;-45
2022/08/07 08:07:42;;;;;;;1.67;0.47;;;;;;;;;;4822838;29;20051;-47
2022/08/07 08:10:28;;;;;;;1.50;0.75;;;;;;;;;;4823111;29;20095;-44
2022/08/07 08:13:07;;;;;;;4.70;0.63;;;;;;;;;;4822829;29;20140;-45
2022/08/07 08:15:45;;;;;;;1.58;0.32;;;;;;;;;;4822751;29;20054;-43
2022/08/07 08:18:27;;;;;;;2.50;0.40;;;;;;;;;;4822992;29;20465;-42
2022/08/07 08:21:00;;;;;;;1.88;0.38;;;;;;;;;;4822980;29;20088;-43
2022/08/07 08:29:04;;;;;;;1.48;0.50;;;;;;;;;;4809210;29;20408;-46
2022/08/07 08:31:36;;;;;;;3.47;0.50;;;;;;;;;;4822609;29;20053;-47
2022/08/07 08:34:36;;;;;;;1.13;0.40;;;;;;;;;;4821431;29;20050;-44
2022/08/07 08:37:05;;;;;;;0.95;0.40;;;;;;;;;;4822546;29;20046;-45
2022/08/07 08:39:54;;;;;;;2.15;0.40;;;;;;;;;;4822868;29;20050;-42
2022/08/07 08:42:38;;;;;;;1.65;0.40;;;;;;;;;;4822854;29;20076;-46
2022/08/07 08:45:48;;;;;;;0.98;0.35;;;;;;;;;;4822528;29;20055;-49
2022/08/07 08:48:36;;;;;;;1.15;0.40;;;;;;;;;;4812495;29;20515;-43
2022/08/07 08:51:12;;;;;;;1.75;0.40;;;;;;;;;;4840652;29;20046;-48
2022/08/07 08:54:01;;;;;;;1.05;0.40;;;;;;;;;;4839846;29;20498;-44
2022/08/07 08:56:31;;;;;;;14.05;8.10;;;;;;;;;;4842861;29;20132;-44
2022/08/07 08:59:03;;;;;;;2.03;0.75;;;;;;;;;;4843921;29;20498;-43
2022/08/07 09:02:04;;;;;;;2.90;0.40;;;;;;;;;;4843656;29;20042;-43
2022/08/07 09:05:03;;;;;;;1.65;0.40;;;;;;;;;;4843776;29;20479;-42
2022/08/07 09:07:56;;;;;;;1.13;0.43;;;;;;;;;;4826442;29;20046;-42
2022/08/07 09:10:31;;;;;;;1.23;0.50;;;;;;;;;;4835932;29;20107;-46
2022/08/07 09:13:40;;;;;;;1.02;0.50;;;;;;;;;;4825436;29;20057;-44
2022/08/07 09:16:47;;;;;;;0.80;0.30;;;;;;;;;;4822584;29;20050;-46
2022/08/07 09:19:40;;;;;;;3.47;0.50;;;;;;;;;;4823178;29;20074;-44
2022/08/07 09:22:40;;;;;;;;;;;;;;;;;;4825206;29;20074;-41
2022/08/07 09:25:43;;;;;;;2.95;0.80;;;;;;;;;;4825146;29;19954;-45
2022/08/07 09:28:40;;;;;;;0.95;0.50;;;;;;;;;;4824935;29;20050;-43
2022/08/07 09:31:46;;;;;;;0.85;0.40;;;;;;;;;;4806902;29;20142;-42
2022/08/07 09:34:26;;;;;;;1.13;0.38;;;;;;;;;;4806917;29;20207;-42
2022/08/07 09:37:10;;;;;;;3.50;0.68;;;;;;;;;;4806835;29;20133;-43
2022/08/07 09:39:52;;;;;;;0.57;0.40;;;;;;;;;;4807014;29;20123;-42
2022/08/07 09:42:33;;;;;;;3.85;0.40;;;;;;;;;;4806688;29;20047;-42
2022/08/07 09:45:33;;;;;;;2.85;0.63;;;;;;;;;;4805920;29;20047;-42
2022/08/07 09:48:51;;;;;;;0.90;0.40;;;;;;;;;;4814472;29;20038;-44
2022/08/07 09:51:59;;;;;;;3.70;0.50;;;;;;;;;;4842939;29;20042;-42
2022/08/07 09:54:57;;;;;;;1.38;0.30;;;;;;;;;;4843256;29;20045;-42
2022/08/07 09:57:56;;;;;;;0.80;0.25;;;;;;;;;;4843124;29;20038;-42
2022/08/07 10:00:39;;;;;;;2.95;0.40;;;;;;;;;;4843137;29;20571;-42
2022/08/07 10:03:34;;;;;;;1.65;0.57;;;;;;;;;;4842987;29;20041;-44
2022/08/07 10:06:30;;;;;;;2.70;0.63;;;;;;;;;;4841565;29;20038;-43
2022/08/07 10:09:38;;;;;;;2.72;0.50;;;;;;;;;;4842259;29;20050;-43
2022/08/07 10:12:37;;;;;;;1.48;0.60;;;;;;;;;;4841531;29;20509;-43
2022/08/07 10:15:26;;;;;;;1.52;0.45;;;;;;;;;;4842488;29;20046;-44
2022/08/07 10:18:12;;;;;;;0.88;0.30;;;;;;;;;;4842727;29;20128;-42
2022/08/07 10:21:00;;;;;;;1.75;0.47;;;;;;;;;;4842589;29;20046;-42
2022/08/07 10:23:49;;;;;;;2.65;0.40;;;;;;;;;;4842507;29;20110;-42
2022/08/07 10:26:52;;;;;;;1.75;0.55;;;;;;;;;;4842377;29;20054;-42
2022/08/07 10:29:59;;;;;;;1.42;0.47;;;;;;;;;;4842617;29;20083;-42
2022/08/07 10:32:46;;;;;;;1.83;0.40;;;;;;;;;;4842592;29;20117;-43
2022/08/07 10:35:53;;;;;;;0.52;0.32;;;;;;;;;;4842365;29;20124;-44
2022/08/07 10:38:49;;;;;;;0.95;0.40;;;;;;;;;;4842351;29;20103;-43
2022/08/07 10:41:26;;;;;;;1.35;0.30;;;;;;;;;;4842151;29;20098;-42
2022/08/07 10:44:22;;;;;;;1.33;0.40;;;;;;;;;;4842144;29;20414;-43
2022/08/07 10:47:18;;;;;;;3.20;0.40;;;;;;;;;;4841947;29;20402;-45
2022/08/07 10:50:30;;;;;;;2.35;0.30;;;;;;;;;;4825121;29;20046;-43
2022/08/07 10:53:09;;;;;;;2.97;0.60;;;;;;;;;;4824023;29;20129;-42
2022/08/07 10:56:01;;;;;;;0.85;0.55;;;;;;;;;;4823692;29;20054;-42
2022/08/07 10:58:37;;;;;;;1.45;0.40;;;;;;;;;;4823685;29;20046;-43
2022/08/07 11:01:12;;;;;;;2.45;0.65;;;;;;;;;;4823785;29;20043;-43
2022/08/07 11:04:04;;;;;;;0.30;0.30;;;;;;;;;;4823730;29;20038;-42
2022/08/07 11:06:58;;;;;;;2.22;0.40;;;;;;;;;;4823507;29;20051;-43
2022/08/07 11:09:30;;;;;;;1.98;0.40;;;;;;;;;;4823883;29;20046;-44
2022/08/07 11:12:23;;;;;;;0.95;0.28;;;;;;;;;;4823755;29;20046;-44
2022/08/07 11:15:05;;;;;;;1.83;0.32;;;;;;;;;;4823293;29;20077;-42
2022/08/07 11:17:53;;;;;;;1.38;0.57;;;;;;;;;;4823414;29;20038;-43
2022/08/07 11:20:45;;;;;;;0.55;0.30;;;;;;;;;;4823297;29;20046;-42
2022/08/07 11:23:26;;;;;;;;;;;;;;;;;;4806031;29;20054;-42
2022/08/07 11:26:41;;;;;;;3.85;0.50;;;;;;;;;;4823394;29;19925;-42
2022/08/07 11:29:25;;;;;;;2.90;0.40;;;;;;;;;;4819878;29;20054;-42
2022/08/07 11:32:16;;;;;;;0.47;0.30;;;;;;;;;;4823365;29;20050;-42
2022/08/07 11:35:07;;;;;;;0.63;0.30;;;;;;;;;;4823385;29;20057;-42
2022/08/07 11:37:59;;;;;;;0.43;0.35;;;;;;;;;;4822990;29;20052;-43
2022/08/07 11:40:44;;;;;;;0.70;0.20;;;;;;;;;;4823352;29;20042;-43
2022/08/07 11:43:26;;;;;;;1.40;0.30;;;;;;;;;;4823235;29;20117;-44
2022/08/07 11:46:27;;;;;;;0.50;0.40;;;;;;;;;;4822711;29;20102;-42
2022/08/07 11:49:01;;;;;;;2.97;0.47;;;;;;;;;;4831600;29;20456;-42
2022/08/07 11:52:16;;;;;;;1.30;0.40;;;;;;;;;;4841308;29;20077;-43
2022/08/07 11:54:59;;;;;;;2.03;0.40;;;;;;;;;;4841193;29;20557;-45
2022/08/07 11:58:01;;;;;;;1.35;0.32;;;;;;;;;;4841108;29;20579;-42
2022/08/07 12:01:20;;;;;;;0.47;0.20;;;;;;;;;;4841302;29;20399;-42
2022/08/07 12:04:26;;;;;;;1.27;0.30;;;;;;;;;;4841078;29;20078;-43
2022/08/07 12:07:25;;;;;;;2.47;0.40;;;;;;;;;;4841111;29;20079;-43
2022/08/07 12:10:16;;;;;;;1.33;0.30;;;;;;;;;;4838844;29;20058;-43
2022/08/07 12:13:01;;;;;;;1.40;0.32;;;;;;;;;;4841109;29;20069;-42
2022/08/07 12:15:46;;;;;;;0.43;0.25;;;;;;;;;;4839689;29;20045;-42
2022/08/07 12:18:40;;;;;;;0.80;0.20;;;;;;;;;;4840919;29;20488;-42
2022/08/07 12:21:46;;;;;;;0.82;0.28;;;;;;;;;;4840991;29;20082;-43
2022/08/07 12:28:51;;;;;;;0.50;0.20;;;;;;;;;;4840835;29;20073;-43
2022/08/07 12:31:50;;;;;;;1.58;0.38;;;;;;;;;;4839168;29;20405;-43
2022/08/07 12:34:33;;;;;;;0.15;0.10;;;;;;;;;;4844401;29;20050;-43
2022/08/07 12:37:03;;;;;;;0.45;0.20;;;;;;;;;;4844088;29;20049;-45
2022/08/07 12:39:51;;;;;;;0.30;0.20;;;;;;;;;;4842905;29;20042;-44
2022/08/07 12:42:28;;;;;;;1.98;0.50;;;;;;;;;;4844026;29;20046;-44
2022/08/07 12:45:04;;;;;;;1.05;0.43;;;;;;;;;;4844426;29;20042;-42
2022/08/07 12:47:54;;;;;;;0.25;0.20;;;;;;;;;;4844084;29;20094;-46
2022/08/07 12:50:34;;;;;;;1.55;0.20;;;;;;;;;;4807687;29;20043;-42
2022/08/07 12:53:21;;;;;;;1.15;0.40;;;;;;;;;;4807523;29;20111;-43
2022/08/07 12:56:11;;;;;;;30.05;14.38;;;;;;;;;;4807824;29;20107;-43
2022/08/07 12:58:45;;;;;;;10.60;4.00;;;;;;;;;;4807504;29;20112;-42
2022/08/07 13:01:28;;;;;;;1.60;0.30;;;;;;;;;;4807782;29;20049;-43
2022/08/07 13:04:01;;;;;;;0.40;0.20;;;;;;;;;;4807405;29;20043;-43
2022/08/07 13:06:43;;;;;;;3.33;0.20;;;;;;;;;;4807366;29;20197;-43
2022/08/07 13:09:49;;;;;;;1.20;0.20;;;;;;;;;;4807465;29;20538;-44
2022/08/07 13:12:50;;;;;;;1.85;0.28;;;;;;;;;;4807416;29;20092;-43
2022/08/07 13:15:41;;;;;;;1.17;0.20;;;;;;;;;;4807333;29;20151;-46
2022/08/07 13:18:37;;;;;;;0.80;0.30;;;;;;;;;;4806935;29;20054;-43
2022/08/07 13:21:08;;;;;;;0.73;0.32;;;;;;;;;;4806959;29;20100;-46
2022/08/07 13:23:56;;;;;;;1.08;0.30;;;;;;;;;;4806949;29;20059;-43
2022/08/07 13:26:40;;;;;;;3.03;0.30;;;;;;;;;;4806131;29;20469;-44
2022/08/07 13:29:19;;;;;;;1.08;0.30;;;;;;;;;;4807017;29;20389;-45
2022/08/07 13:31:53;;;;;;;2.17;0.30;;;;;;;;;;4805831;29;20051;-43
2022/08/07 13:35:02;;;;;;;0.82;0.30;;;;;;;;;;4806940;29;20050;-43
2022/08/07 13:37:44;;;;;;;1.63;0.40;;;;;;;;;;4807065;29;20130;-44
2022/08/07 13:40:32;;;;;;;7.10;0.65;;;;;;;;;;4807311;29;20051;-44
2022/08/07 13:43:14;;;;;;;6.00;3.03;;;;;;;;;;4805837;29;20039;-42
2022/08/07 13:45:50;;;;;;;1.77;0.88;;;;;;;;;;4806861;29;20050;-44
2022/08/07 13:48:42;;;;;;;0.32;0.28;;;;;;;;;;4818847;29;20045;-42
2022/08/07 13:51:27;;;;;;;3.40;0.50;;;;;;;;;;4843416;29;20424;-46
2022/08/07 13:54:16;;;;;;;0.82;0.30;;;;;;;;;;4842782;29;20042;-46
2022/08/07 13:56:54;;;;;;;2.85;0.28;;;;;;;;;;4842837;29;20077;-46
2022/08/07 13:59:31;;;;;;;0.30;0.10;;;;;;;;;;4842743;29;20073;-44
2022/08/07 14:02:09;;;;;;;1.08;0.20;;;;;;;;;;4843091;29;20113;-43
2022/08/07 14:04:52;;;;;;;1.17;0.40;;;;;;;;;;4831025;29;20051;-44
2022/08/07 14:07:28;;;;;;;0.73;0.20;;;;;;;;;;4824548;29;20506;-43
2022/08/07 14:09:59;;;;;;;0.60;0.30;;;;;;;;;;4824583;29;20384;-43
2022/08/07 14:12:50;;;;;;;1.35;0.20;;;;;;;;;;4824276;29;20541;-46
2022/08/07 14:15:37;;;;;;;0.43;0.30;;;;;;;;;;4824536;29;20046;-45
2022/08/07 14:18:13;;;;;;;2.05;0.30;;;;;;;;;;4824049;29;20043;-44
2022/08/07 14:21:19;;;;;;;3.67;0.60;;;;;;;;;;4824600;29;20122;-44
2022/08/07 14:24:26;;;;;;;1.15;0.30;;;;;;;;;;4824033;29;20138;-45
2022/08/07 14:26:58;;;;;;;1.50;0.30;;;;;;;;;;4824684;29;20053;-49
2022/08/07 14:29:31;;;;;;;3.50;0.30;;;;;;;;;;4824062;29;20126;-44
2022/08/07 14:32:20;;;;;;;14.55;6.00;;;;;;;;;;4824288;29;20384;-45
2022/08/07 14:34:52;;;;;;;0.67;0.20;;;;;;;;;;4823961;29;20125;-45
2022/08/07 14:37:20;;;;;;;2.42;0.45;;;;;;;;;;4823988;29;20073;-45
2022/08/07 14:40:03;;;;;;;1.58;0.30;;;;;;;;;;4824168;29;20042;-47
2022/08/07 14:42:55;;;;;;;1.63;0.30;;;;;;;;;;4823939;29;20059;-45
2022/08/07 14:45:48;;;;;;;2.17;0.50;;;;;;;;;;4824134;29;20039;-45
2022/08/07 14:48:19;;;;;;;1.20;0.30;;;;;;;;;;4827022;29;20092;-47
2022/08/07 14:50:52;;;;;;;3.58;0.25;;;;;;;;;;4841924;29;20048;-47
2022/08/07 14:53:22;;;;;;;1.40;0.50;;;;;;;;;;4841937;29;20098;-45
2022/08/07 14:56:10;;;;;;;1.30;0.65;;;;;;;;;;4841811;29;20099;-45
2022/08/07 14:58:44;;;;;;;0.20;0.20;;;;;;;;;;4841855;29;20410;-44
2022/08/07 15:01:18;;;;;;;1.55;0.55;;;;;;;;;;4840966;29;20049;-45
2022/08/07 15:04:06;;;;;;;1.08;0.38;;;;;;;;;;4841701;29;20068;-46
2022/08/07 15:06:39;;;;;;;1.13;0.47;;;;;;;;;;4841751;29;20045;-45
2022/08/07 15:09:16;;;;;;;0.47;0.30;;;;;;;;;;4841708;29;20695;-45
2022/08/07 15:12:10;;;;;;;1.73;0.80;;;;;;;;;;4841336;29;20045;-45
2022/08/07 15:15:08;;;;;;;1.55;0.47;;;;;;;;;;4828503;29;20553;-44
2022/08/07 15:18:01;;;;;;;0.82;0.40;;;;;;;;;;4841594;29;20466;-44
2022/08/07 15:20:38;;;;;;;1.83;0.40;;;;;;;;;;4841549;29;20141;-44
2022/08/07 15:23:31;;;;;;;0.95;0.47;;;;;;;;;;4841446;29;20081;-53
2022/08/07 15:26:26;;;;;;;0.63;0.20;;;;;;;;;;4841473;29;20073;-44
2022/08/07 15:28:56;;;;;;;0.85;0.28;;;;;;;;;;4841452;29;20050;-43
2022/08/07 15:31:47;;;;;;;2.10;0.25;;;;;;;;;;4841380;29;20056;-46
2022/08/07 15:35:01;;;;;;;13.85;9.27;;;;;;;;;;4841371;29;20071;-45
2022/08/07 15:37:34;;;;;;;0.82;0.22;;;;;;;;;;4837501;29;20057;-43
2022/08/07 15:40:24;;;;;;;0.52;0.20;;;;;;;;;;4841377;29;20051;-43
2022/08/07 15:43:16;;;;;;;0.85;0.20;;;;;;;;;;4841385;29;20049;-44
2022/08/07 15:46:19;;;;;;;1.95;0.40;;;;;;;;;;4841111;29;20038;-44
2022/08/07 15:49:12;;;;;;;1.05;0.30;;;;;;;;;;4831770;29;20090;-43
2022/08/07 15:51:46;;;;;;;1.35;0.30;;;;;;;;;;4823139;29;20523;-44
2022/08/07 15:54:36;;;;;;;0.50;0.20;;;;;;;;;;4823186;29;20084;-43
2022/08/07 15:57:13;;;;;;;0.88;0.30;;;;;;;;;;4822947;29;20039;-45
2022/08/07 16:00:03;;;;;;;0.70;0.30;;;;;;;;;;4821552;29;20499;-44
2022/08/07 16:02:44;;;;;;;0.50;0.40;;;;;;;;;;4822980;29;20057;-47
2022/08/07 16:05:18;;;;;;;0.47;0.32;;;;;;;;;;4823273;29;20053;-47
2022/08/07 16:07:49;;;;;;;1.40;0.40;;;;;;;;;;4826320;29;20474;-45
2022/08/07 16:10:40;;;;;;;0.63;0.40;;;;;;;;;;4826562;29;20083;-49
2022/08/07 16:13:22;;;;;;;0.70;0.30;;;;;;;;;;4826396;29;20129;-46
2022/08/07 16:16:25;;;;;;;2.15;0.40;;;;;;;;;;4826353;29;20051;-45
2022/08/07 16:19:15;;;;;;;0.65;0.47;;;;;;;;;;4826018;29;20053;-48
2022/08/07 16:21:55;;;;;;;1.70;0.40;;;;;;;;;;4826222;29;20103;-45
2022/08/07 16:24:54;;;;;;;1.70;0.50;;;;;;;;;;4825938;29;20141;-47
2022/08/07 16:27:27;;;;;;;0.32;0.30;;;;;;;;;;4826018;29;20460;-43
2022/08/07 16:30:12;;;;;;;1.90;0.57;;;;;;;;;;4825612;29;20046;-45
2022/08/07 16:33:11;;;;;;;0.17;0.13;;;;;;;;;;4826225;29;20078;-42